createdAt,value
2022-11-21T00:00:44.767Z,0.50
2022-11-21T00:03:11.902Z,1.02
2022-11-21T00:05:47.685Z,2.78
2022-11-21T00:08:16.388Z,1.65
2022-11-21T00:10:43.088Z,2.45
2022-11-21T00:13:20.599Z,1.35
2022-11-21T00:15:47.880Z,0.70
2022-11-21T00:18:15.363Z,1.50
2022-11-21T00:20:42.550Z,2.78
2022-11-21T00:23:09.352Z,0.25
2022-11-21T00:25:36.377Z,2.70
2022-11-21T00:28:02.962Z,0.82
2022-11-21T00:30:29.966Z,1.35
2022-11-21T00:32:58.431Z,0.98
2022-11-21T00:35:24.872Z,1.15
2022-11-21T00:37:51.210Z,1.60
2022-11-21T00:40:18.187Z,3.28
2022-11-21T00:42:44.635Z,0.98
2022-11-21T00:45:11.764Z,3.40
2022-11-21T00:47:38.138Z,3.35
2022-11-21T00:50:04.954Z,1.95
2022-11-21T00:52:31.278Z,3.05
2022-11-21T00:54:57.717Z,1.63
2022-11-21T00:57:24.047Z,2.97
2022-11-21T00:59:50.413Z,3.65
2022-11-21T01:02:16.768Z,3.80
2022-11-21T01:04:43.271Z,2.00
2022-11-21T01:07:09.657Z,2.55
2022-11-21T01:09:36.029Z,3.63
2022-11-21T01:12:02.386Z,2.67
2022-11-21T01:14:29.237Z,7.13
2022-11-21T01:16:55.737Z,4.78
2022-11-21T01:19:22.233Z,2.97
2022-11-21T01:21:48.644Z,3.28
2022-11-21T01:24:15.029Z,4.32
2022-11-21T01:26:41.442Z,2.95
2022-11-21T01:29:09.191Z,7.90
2022-11-21T01:31:36.113Z,3.50
2022-11-21T01:34:02.745Z,3.28
2022-11-21T01:36:31.745Z,4.05
2022-11-21T01:39:00.468Z,3.70
2022-11-21T01:41:35.424Z,3.67
2022-11-21T01:44:04.195Z,2.58
2022-11-21T01:46:30.523Z,6.03
2022-11-21T01:48:57.009Z,3.45
2022-11-21T01:51:34.090Z,2.50
2022-11-21T01:54:26.708Z,6.68
2022-11-21T01:57:05.601Z,4.22
2022-11-21T01:59:39.224Z,5.63
2022-11-21T02:02:10.580Z,2.67
2022-11-21T02:04:38.791Z,2.30
2022-11-21T02:07:07.096Z,6.53
2022-11-21T02:09:37.303Z,3.33
2022-11-21T02:12:17.233Z,5.75
2022-11-21T02:14:44.466Z,3.58
2022-11-21T02:17:11.961Z,3.65
2022-11-21T02:19:48.683Z,3.63
2022-11-21T02:22:40.439Z,9.32
2022-11-21T02:25:14.189Z,6.25
2022-11-21T02:27:40.991Z,7.20
2022-11-21T02:30:09.818Z,7.22
2022-11-21T02:32:40.243Z,6.03
2022-11-21T02:35:07.718Z,6.80
2022-11-21T02:37:36.497Z,10.63
2022-11-21T02:40:09.929Z,7.35
2022-11-21T02:42:58.077Z,3.90
2022-11-21T02:45:33.381Z,10.10
2022-11-21T02:48:03.855Z,4.10
2022-11-21T02:50:42.189Z,4.93
2022-11-21T02:53:11.589Z,5.45
2022-11-21T02:55:38.195Z,4.30
2022-11-21T02:58:05.731Z,4.93
2022-11-21T03:00:33.780Z,7.18
2022-11-21T03:03:00.232Z,7.88
2022-11-21T03:05:27.227Z,4.68
2022-11-21T03:07:53.592Z,4.22
2022-11-21T03:10:20.501Z,8.05
2022-11-21T03:12:46.874Z,4.55
2022-11-21T03:15:15.486Z,6.47
2022-11-21T03:17:42.770Z,4.15
2022-11-21T03:20:10.023Z,5.40
2022-11-21T03:22:36.423Z,8.05
2022-11-21T03:25:02.949Z,4.75
2022-11-21T03:27:29.325Z,9.73
2022-11-21T03:29:55.685Z,10.85
2022-11-21T03:32:22.127Z,6.30
2022-11-21T03:34:48.581Z,7.55
2022-11-21T03:37:14.988Z,5.47
2022-11-21T03:39:41.328Z,4.18
2022-11-21T03:42:07.790Z,6.25
2022-11-21T03:44:34.165Z,7.15
2022-11-21T03:47:00.553Z,4.75
2022-11-21T03:49:26.923Z,6.53
2022-11-21T03:51:53.276Z,5.90
2022-11-21T03:54:19.704Z,6.82
2022-11-21T03:56:46.106Z,8.00
2022-11-21T03:59:12.482Z,8.10
2022-11-21T04:01:39.135Z,12.98
2022-11-21T04:04:05.684Z,9.57
2022-11-21T04:06:32.226Z,6.28
2022-11-21T04:08:58.676Z,5.30
2022-11-21T04:11:25.248Z,6.10
2022-11-21T04:13:54.412Z,6.57
2022-11-21T04:16:20.845Z,7.03
2022-11-21T04:18:47.565Z,5.15
2022-11-21T04:21:14.298Z,8.73
2022-11-21T04:23:40.756Z,7.18
2022-11-21T04:26:07.177Z,4.32
2022-11-21T04:28:33.549Z,9.32
2022-11-21T04:31:09.912Z,4.45
2022-11-21T04:33:36.580Z,4.00
2022-11-21T04:36:02.997Z,3.50
2022-11-21T04:38:29.406Z,4.05
2022-11-21T04:40:55.771Z,5.22
2022-11-21T04:43:22.187Z,3.50
2022-11-21T04:45:48.737Z,4.63
2022-11-21T04:48:15.132Z,4.03
2022-11-21T04:50:41.520Z,6.38
2022-11-21T04:53:07.885Z,3.65
2022-11-21T04:55:34.397Z,3.58
2022-11-21T04:58:00.871Z,4.93
2022-11-21T05:00:27.367Z,4.60
2022-11-21T05:02:54.003Z,1.65
2022-11-21T05:05:20.441Z,2.20
2022-11-21T05:07:46.840Z,3.90
2022-11-21T05:10:13.184Z,5.57
2022-11-21T05:12:58.232Z,4.60
2022-11-21T05:15:25.176Z,3.05
2022-11-21T05:17:52.093Z,2.50
2022-11-21T05:20:18.991Z,2.10
2022-11-21T05:22:50.768Z,4.75
2022-11-21T05:25:17.160Z,1.52
2022-11-21T05:27:43.571Z,3.28
2022-11-21T05:30:11.241Z,1.67
2022-11-21T05:32:37.777Z,2.35
2022-11-21T05:35:04.416Z,4.90
2022-11-21T05:37:30.815Z,5.60
2022-11-21T05:39:57.270Z,2.17
2022-11-21T05:42:43.614Z,1.60
2022-11-21T05:45:10.253Z,1.45
2022-11-21T05:47:36.956Z,2.70
2022-11-21T05:50:04.043Z,3.20
2022-11-21T05:52:30.440Z,3.38
2022-11-21T05:54:56.807Z,2.47
2022-11-21T05:57:23.209Z,2.80
2022-11-21T05:59:49.614Z,2.08
2022-11-21T06:02:51.461Z,3.28
2022-11-21T06:05:17.963Z,3.28
2022-11-21T06:07:44.434Z,5.13
2022-11-21T06:10:10.843Z,2.58
2022-11-21T06:12:37.169Z,1.52
2022-11-21T06:15:03.924Z,1.98
2022-11-21T06:17:30.275Z,2.88
2022-11-21T06:19:56.639Z,1.45
2022-11-21T06:22:22.991Z,3.75
2022-11-21T06:24:49.466Z,1.23
2022-11-21T06:27:15.815Z,2.03
2022-11-21T06:29:42.221Z,3.97
2022-11-21T06:32:08.592Z,1.15
2022-11-21T06:34:34.989Z,3.03
2022-11-21T06:37:01.452Z,2.45
2022-11-21T06:39:27.888Z,2.05
2022-11-21T06:41:54.266Z,4.30
2022-11-21T06:44:20.663Z,3.80
2022-11-21T06:46:50.981Z,5.45
2022-11-21T06:49:17.979Z,3.97
2022-11-21T06:51:44.424Z,2.70
2022-11-21T06:54:15.214Z,4.63
2022-11-21T06:56:42.761Z,3.30
2022-11-21T06:59:09.335Z,4.15
2022-11-21T07:01:35.853Z,3.72
2022-11-21T07:04:02.268Z,4.40
2022-11-21T07:06:28.666Z,2.90
2022-11-21T07:09:25.253Z,2.50
2022-11-21T07:11:41.434Z,3.97
2022-11-21T07:14:09.332Z,2.35
2022-11-21T07:16:37.138Z,2.22
2022-11-21T07:19:03.627Z,2.53
2022-11-21T07:21:30.131Z,3.17
2022-11-21T07:23:56.493Z,3.45
2022-11-21T07:26:23.132Z,2.53
2022-11-21T07:28:49.546Z,2.80
2022-11-21T07:31:15.947Z,2.40
2022-11-21T07:33:46.661Z,2.00
2022-11-21T07:36:13.176Z,3.05
2022-11-21T07:38:41.097Z,2.83
2022-11-21T07:41:07.758Z,2.38
2022-11-21T07:43:34.259Z,2.15
2022-11-21T07:46:00.669Z,3.83
2022-11-21T07:48:27.016Z,2.53
2022-11-21T07:50:53.442Z,4.45
2022-11-21T07:53:19.890Z,5.30
2022-11-21T07:55:46.365Z,1.98
2022-11-21T07:58:15.913Z,4.18
2022-11-21T08:00:42.886Z,4.30
2022-11-21T08:03:11.742Z,2.85
2022-11-21T08:05:39.832Z,2.67
2022-11-21T08:08:07.373Z,2.53
2022-11-21T08:10:37.554Z,3.00
2022-11-21T08:13:04.018Z,4.65
2022-11-21T08:15:30.473Z,6.82
2022-11-21T08:17:56.808Z,2.55
2022-11-21T08:20:23.267Z,2.80
2022-11-21T08:22:50.326Z,3.58
2022-11-21T08:25:16.715Z,11.88
2022-11-21T08:27:43.227Z,2.85
2022-11-21T08:30:11.978Z,4.00
2022-11-21T08:32:38.562Z,4.10
2022-11-21T08:35:05.477Z,2.92
2022-11-21T08:37:32.497Z,3.65
2022-11-21T08:39:59.056Z,1.30
2022-11-21T08:42:25.802Z,3.47
2022-11-21T08:44:52.224Z,3.30
2022-11-21T08:47:20.332Z,1.67
2022-11-21T08:49:47.366Z,3.95
2022-11-21T08:52:14.663Z,4.15
2022-11-21T08:54:41.211Z,3.70
2022-11-21T08:57:07.580Z,5.47
2022-11-21T08:59:34.076Z,3.55
2022-11-21T09:02:00.713Z,3.08
2022-11-21T09:04:27.626Z,2.70
2022-11-21T09:06:54.103Z,4.03
2022-11-21T09:09:25.278Z,3.95
2022-11-21T09:11:52.134Z,3.30
2022-11-21T09:14:37.649Z,4.80
2022-11-21T09:17:22.561Z,4.80
2022-11-21T09:19:49.288Z,3.90
2022-11-21T09:22:15.609Z,2.40
2022-11-21T09:24:41.983Z,3.58
2022-11-21T09:27:08.381Z,3.35
2022-11-21T09:29:34.883Z,5.32
2022-11-21T09:32:01.331Z,9.13
2022-11-21T09:34:27.985Z,5.22
2022-11-21T09:36:55.393Z,2.95
2022-11-21T09:39:21.762Z,4.78
2022-11-21T09:41:54.203Z,5.55
2022-11-21T09:44:52.258Z,3.03
2022-11-21T09:47:23.812Z,4.65
2022-11-21T09:50:13.368Z,2.15
2022-11-21T09:52:47.186Z,6.22
2022-11-21T09:55:35.840Z,2.97
2022-11-21T09:58:09.148Z,2.88
2022-11-21T10:00:35.824Z,5.35
2022-11-21T10:03:02.343Z,3.70
2022-11-21T10:05:49.923Z,3.90
2022-11-21T10:08:30.714Z,3.20
2022-11-21T10:11:21.270Z,5.93
2022-11-21T10:14:11.004Z,4.90
2022-11-21T10:16:49.463Z,7.68
2022-11-21T10:19:31.751Z,4.00
2022-11-21T10:22:43.150Z,3.88
2022-11-21T10:25:32.932Z,1.95
2022-11-21T10:28:19.102Z,3.85
2022-11-21T10:30:47.033Z,3.42
2022-11-21T10:33:41.086Z,3.83
2022-11-21T10:36:23.369Z,6.18
2022-11-21T10:38:50.225Z,3.60
2022-11-21T10:41:42.475Z,2.42
2022-11-21T10:44:45.026Z,8.50
2022-11-21T10:47:27.475Z,4.07
2022-11-21T10:50:08.994Z,5.07
2022-11-21T10:52:42.708Z,3.92
2022-11-21T10:55:12.002Z,3.38
2022-11-21T10:57:50.185Z,3.10
2022-11-21T11:00:20.891Z,2.50
2022-11-21T11:02:56.462Z,3.72
2022-11-21T11:05:24.803Z,1.73
2022-11-21T11:08:20.636Z,3.33
2022-11-21T11:11:07.430Z,3.22
2022-11-21T11:13:53.226Z,3.70
2022-11-21T11:16:22.272Z,3.22
2022-11-21T11:18:59.890Z,4.28
2022-11-21T11:21:39.436Z,1.38
2022-11-21T11:24:14.124Z,2.97
2022-11-21T11:26:48.104Z,1.38
2022-11-21T11:29:17.193Z,5.20
2022-11-21T11:31:45.943Z,3.75
2022-11-21T11:34:17.590Z,1.80
2022-11-21T11:37:09.274Z,2.47
2022-11-21T11:39:51.160Z,6.03
2022-11-21T11:42:42.511Z,3.92
2022-11-21T11:45:30.467Z,7.20
2022-11-21T11:47:59.596Z,3.05
2022-11-21T11:50:43.377Z,1.63
2022-11-21T11:53:20.151Z,2.42
2022-11-21T11:55:53.146Z,3.15
2022-11-21T12:01:20.452Z,2.40
2022-11-21T12:03:57.953Z,1.35
2022-11-21T12:06:52.580Z,2.67
2022-11-21T12:09:31.583Z,3.50
2022-11-21T12:12:27.653Z,2.45
2022-11-21T12:15:30.038Z,4.18
2022-11-21T12:18:16.216Z,2.03
2022-11-21T12:21:00.562Z,2.70
2022-11-21T12:23:56.653Z,1.70
2022-11-21T12:26:36.502Z,2.35
2022-11-21T12:29:30.865Z,5.30
2022-11-21T12:32:04.298Z,1.98
2022-11-21T12:37:16.723Z,5.30
2022-11-21T12:40:10.383Z,4.15
2022-11-21T12:42:58.693Z,3.30
2022-11-21T12:45:30.178Z,2.13
2022-11-21T12:48:37.635Z,2.45
2022-11-21T12:51:46.008Z,3.05
2022-11-21T12:54:30.994Z,2.17
2022-11-21T12:57:11.519Z,3.15
2022-11-21T12:59:50.661Z,1.73
2022-11-21T13:03:07.769Z,2.60
2022-11-21T13:05:40.519Z,3.13
2022-11-21T13:08:11.978Z,7.72
2022-11-21T13:10:50.495Z,1.50
2022-11-21T13:13:23.744Z,3.75
2022-11-21T13:16:02.588Z,3.13
2022-11-21T13:18:36.701Z,5.50
2022-11-21T13:21:03.203Z,2.47
2022-11-21T13:23:41.376Z,5.05
2022-11-21T13:26:30.232Z,7.00
2022-11-21T13:29:15.793Z,4.40
2022-11-21T13:31:43.330Z,6.45
2022-11-21T13:34:31.601Z,5.63
2022-11-21T13:36:58.925Z,4.85
2022-11-21T13:39:29.053Z,5.20
2022-11-21T13:42:20.519Z,2.38
2022-11-21T13:44:47.626Z,3.83
2022-11-21T13:47:26.172Z,4.35
2022-11-21T13:50:16.355Z,2.13
2022-11-21T13:53:04.188Z,4.05
2022-11-21T13:55:43.889Z,1.95
2022-11-21T13:58:16.235Z,2.83
2022-11-21T14:01:40.282Z,2.58
2022-11-21T14:04:37.642Z,6.32
2022-11-21T14:07:22.788Z,4.38
2022-11-21T14:09:54.212Z,5.55
2022-11-21T14:12:37.268Z,5.63
2022-11-21T14:15:28.402Z,5.68
2022-11-21T14:17:59.850Z,5.40
2022-11-21T14:20:28.155Z,7.32
2022-11-21T14:23:15.593Z,9.07
2022-11-21T14:25:49.079Z,3.30
2022-11-21T14:28:23.158Z,5.05
2022-11-21T14:31:06.604Z,8.05
2022-11-21T14:36:18.728Z,6.72
2022-11-21T14:39:02.097Z,2.85
2022-11-21T14:41:36.903Z,2.63
2022-11-21T14:44:06.083Z,4.50
2022-11-21T14:46:39.767Z,3.17
2022-11-21T14:49:12.273Z,4.18
2022-11-21T14:51:40.548Z,3.25
2022-11-21T14:54:15.837Z,2.55
2022-11-21T14:56:42.281Z,3.92
2022-11-21T14:59:24.725Z,4.15
2022-11-21T15:02:03.925Z,4.68
2022-11-21T15:04:33.335Z,2.60
2022-11-21T15:07:00.200Z,3.15
2022-11-21T15:12:19.443Z,2.58
2022-11-21T15:14:55.226Z,5.22
2022-11-21T15:17:24.240Z,4.32
2022-11-21T15:20:11.214Z,3.28
2022-11-21T15:22:41.187Z,3.95
2022-11-21T15:25:15.479Z,2.70
2022-11-21T15:27:42.862Z,3.35
2022-11-21T15:30:09.161Z,6.50
2022-11-21T15:33:13.197Z,3.85
2022-11-21T15:35:41.978Z,2.63
2022-11-21T15:38:30.933Z,4.47
2022-11-21T15:41:09.302Z,3.08
2022-11-21T15:43:35.765Z,4.85
2022-11-21T15:46:16.745Z,7.35
2022-11-21T15:48:52.714Z,7.60
2022-11-21T15:51:51.208Z,7.60
2022-11-21T15:54:17.784Z,4.35
2022-11-21T15:56:44.582Z,3.95
2022-11-21T15:59:10.933Z,5.85
2022-11-21T16:01:37.600Z,5.18
2022-11-21T16:04:06.483Z,3.47
2022-11-21T16:06:34.197Z,2.28
2022-11-21T16:09:01.881Z,5.03
2022-11-21T16:11:29.463Z,8.55
2022-11-21T16:14:00.638Z,5.82
2022-11-21T16:16:29.930Z,7.40
2022-11-21T16:18:56.631Z,6.50
2022-11-21T16:21:23.792Z,5.78
2022-11-21T16:23:50.566Z,7.75
2022-11-21T16:26:17.598Z,8.30
2022-11-21T16:28:44.133Z,5.63
2022-11-21T16:31:21.018Z,6.97
2022-11-21T16:33:47.475Z,5.63
2022-11-21T16:36:18.639Z,11.65
2022-11-21T16:38:45.174Z,10.05
2022-11-21T16:41:13.257Z,7.75
2022-11-21T16:43:47.449Z,6.43
2022-11-21T16:46:14.841Z,12.82
2022-11-21T16:48:41.692Z,18.00
2022-11-21T16:51:19.444Z,22.63
2022-11-21T16:53:48.166Z,13.60
2022-11-21T16:56:15.768Z,8.80
2022-11-21T16:58:43.184Z,7.43
2022-11-21T17:01:18.548Z,5.13
2022-11-21T17:03:47.261Z,6.28
2022-11-21T17:06:18.382Z,7.00
2022-11-21T17:08:45.241Z,11.18
2022-11-21T17:11:13.511Z,10.93
2022-11-21T17:13:40.008Z,10.52
2022-11-21T17:16:10.998Z,9.43
2022-11-21T17:18:38.149Z,10.90
2022-11-21T17:21:07.139Z,12.00
2022-11-21T17:23:34.268Z,6.25
2022-11-21T17:26:02.731Z,8.32
2022-11-21T17:28:30.059Z,10.10
2022-11-21T17:30:56.439Z,7.43
2022-11-21T17:33:22.825Z,5.55
2022-11-21T17:35:49.240Z,8.98
2022-11-21T17:38:15.617Z,10.73
2022-11-21T17:40:42.085Z,5.95
2022-11-21T17:43:08.893Z,6.82
2022-11-21T17:45:35.855Z,7.15
2022-11-21T17:48:02.277Z,10.68
2022-11-21T17:50:28.621Z,8.82
2022-11-21T17:52:57.002Z,8.30
2022-11-21T17:55:23.329Z,10.32
2022-11-21T17:57:49.897Z,6.40
2022-11-21T18:00:16.324Z,7.63
2022-11-21T18:02:42.943Z,8.27
2022-11-21T18:05:09.459Z,8.27
2022-11-21T18:07:37.540Z,5.25
2022-11-21T18:10:27.373Z,5.75
2022-11-21T18:12:51.494Z,6.28
2022-11-21T18:15:17.995Z,11.38
2022-11-21T18:17:44.471Z,7.95
2022-11-21T18:20:11.165Z,5.03
2022-11-21T18:22:37.580Z,7.93
2022-11-21T18:25:04.165Z,11.93
2022-11-21T18:27:30.643Z,8.95
2022-11-21T18:29:57.006Z,10.52
2022-11-21T18:32:24.333Z,9.23
2022-11-21T18:34:50.667Z,9.48
2022-11-21T18:37:17.118Z,6.30
2022-11-21T18:39:43.485Z,7.88
2022-11-21T18:42:09.909Z,6.78
2022-11-21T18:44:36.293Z,8.35
2022-11-21T18:47:11.976Z,6.05
2022-11-21T18:52:12.294Z,9.88
2022-11-21T18:54:39.834Z,4.93
2022-11-21T18:57:06.174Z,3.92
2022-11-21T18:59:32.671Z,9.13
2022-11-21T19:01:59.129Z,7.63
2022-11-21T19:04:25.720Z,5.97
2022-11-21T19:06:52.057Z,5.38
2022-11-21T19:09:18.788Z,6.47
2022-11-21T19:11:45.184Z,6.13
2022-11-21T19:14:11.660Z,7.35
2022-11-21T19:16:38.079Z,6.55
2022-11-21T19:21:56.950Z,5.53
2022-11-21T19:24:23.364Z,5.93
2022-11-21T19:26:50.508Z,9.50
2022-11-21T19:29:17.548Z,6.70
2022-11-21T19:31:45.916Z,10.40
2022-11-21T19:34:14.592Z,7.60
2022-11-21T19:36:42.029Z,7.72
2022-11-21T19:39:08.911Z,7.65
2022-11-21T19:41:35.352Z,8.27
2022-11-21T19:44:02.314Z,4.82
2022-11-21T19:46:39.382Z,6.32
2022-11-21T19:49:07.343Z,5.53
2022-11-21T19:51:44.395Z,9.30
2022-11-21T19:54:13.211Z,5.85
2022-11-21T19:56:40.210Z,8.68
2022-11-21T19:59:06.664Z,8.10
2022-11-21T20:01:34.354Z,5.95
2022-11-21T20:04:03.678Z,7.95
2022-11-21T20:06:32.920Z,8.68
2022-11-21T20:09:21.564Z,6.65
2022-11-21T20:11:50.179Z,6.07
2022-11-21T20:14:21.838Z,6.70
2022-11-21T20:16:49.192Z,8.35
2022-11-21T20:19:18.201Z,8.85
2022-11-21T20:21:45.398Z,9.25
2022-11-21T20:24:12.502Z,6.78
2022-11-21T20:26:39.567Z,10.68
2022-11-21T20:29:06.347Z,9.23
2022-11-21T20:31:36.871Z,9.82
2022-11-21T20:34:06.480Z,9.65
2022-11-21T20:36:34.924Z,11.82
2022-11-21T20:39:04.714Z,9.73
2022-11-21T20:41:34.197Z,9.85
2022-11-21T20:46:49.717Z,9.40
2022-11-21T20:49:17.265Z,5.97
2022-11-21T20:53:26.405Z,7.13
2022-11-21T20:54:31.229Z,7.38
2022-11-21T20:56:57.931Z,8.75
2022-11-21T20:59:25.762Z,6.57
2022-11-21T21:01:52.493Z,6.75
2022-11-21T21:04:19.125Z,6.35
2022-11-21T21:06:45.659Z,7.57
2022-11-21T21:09:12.148Z,7.25
2022-11-21T21:11:52.005Z,7.72
2022-11-21T21:14:20.048Z,5.57
2022-11-21T21:16:46.571Z,5.40
2022-11-21T21:19:13.049Z,5.95
2022-11-21T21:21:41.341Z,4.95
2022-11-21T21:24:09.944Z,7.03
2022-11-21T21:26:42.658Z,6.88
2022-11-21T21:29:12.488Z,6.70
2022-11-21T21:31:40.252Z,5.40
2022-11-21T21:34:10.012Z,7.30
2022-11-21T21:36:36.656Z,8.70
2022-11-21T21:39:04.088Z,9.60
2022-11-21T21:41:31.365Z,6.72
2022-11-21T21:43:58.271Z,5.28
2022-11-21T21:46:26.660Z,6.38
2022-11-21T21:48:56.016Z,5.55
2022-11-21T21:51:27.947Z,5.20
2022-11-21T21:53:55.862Z,6.38
2022-11-21T21:56:23.760Z,6.10
2022-11-21T21:58:51.071Z,5.43
2022-11-21T22:01:23.601Z,3.63
2022-11-21T22:03:53.663Z,6.32
2022-11-21T22:06:20.442Z,7.32
2022-11-21T22:08:48.167Z,3.85
2022-11-21T22:11:19.623Z,4.85
2022-11-21T22:13:50.567Z,5.10
2022-11-21T22:16:17.417Z,6.28
2022-11-21T22:18:43.817Z,5.28
2022-11-21T22:21:34.286Z,6.28
2022-11-21T22:24:24.829Z,4.75
2022-11-21T22:26:48.795Z,5.43
2022-11-21T22:29:15.173Z,4.57
2022-11-21T22:31:41.664Z,5.15
2022-11-21T22:34:11.473Z,3.35
2022-11-21T22:36:37.890Z,3.65
2022-11-21T22:39:04.273Z,4.15
2022-11-21T22:41:30.674Z,4.45
2022-11-21T22:43:58.677Z,2.85
2022-11-21T22:46:27.150Z,3.13
2022-11-21T22:48:53.651Z,5.30
2022-11-21T22:51:23.076Z,3.30
2022-11-21T22:53:50.039Z,5.10
2022-11-21T22:56:19.342Z,3.92
2022-11-21T22:58:46.711Z,3.70
2022-11-21T23:01:15.995Z,7.97
2022-11-21T23:03:43.117Z,3.03
2022-11-21T23:06:10.942Z,6.93
2022-11-21T23:08:38.159Z,4.30
2022-11-21T23:11:06.805Z,4.95
2022-11-21T23:13:34.774Z,4.72
2022-11-21T23:16:01.729Z,3.20
2022-11-21T23:18:28.076Z,6.05
2022-11-21T23:20:54.563Z,4.75
2022-11-21T23:23:21.051Z,3.42
2022-11-21T23:25:47.566Z,6.30
2022-11-21T23:28:14.171Z,4.10
2022-11-21T23:30:40.892Z,3.58
2022-11-21T23:33:07.327Z,4.82
2022-11-21T23:35:33.743Z,4.65
2022-11-21T23:38:00.096Z,9.27
2022-11-21T23:40:26.434Z,4.00
2022-11-21T23:42:52.744Z,7.78
2022-11-21T23:45:19.132Z,3.47
2022-11-21T23:47:45.514Z,5.95
2022-11-21T23:50:12.156Z,4.07
2022-11-21T23:52:38.529Z,4.13
2022-11-21T23:55:05.328Z,3.22
2022-11-21T23:57:31.698Z,5.00
2022-11-21T23:59:58.029Z,4.18
